Time;durP1;ratioP1;P1;durP2;ratioP2;P2;SDS_P1;SDS_P2;PMS_P1;PMS_P2;Temp;Humidity;BMP_temperature;BMP_pressure;BME280_temperature;BME280_humidity;BME280_pressure;Samples;Min_cycle;Max_cycle;Signal;HPM_P1;HPM_P2
2022/04/11 00:01:48;;;;;;;9.27;4.70;;;;;;;;;;5114359;27;20012;-73
2022/04/11 00:04:13;;;;;;;8.02;4.22;;;;;;;;;;5110654;28;20390;-73
2022/04/11 00:06:38;;;;;;;6.97;4.40;;;;;;;;;;5110969;28;20038;-73
2022/04/11 00:09:04;;;;;;;9.60;4.03;;;;;;;;;;5121008;27;20022;-73
2022/04/11 00:11:29;;;;;;;6.03;3.40;;;;;;;;;;5119628;27;20024;-73
2022/04/11 00:13:55;;;;;;;7.40;3.85;;;;;;;;;;5130892;27;20023;-73
2022/04/11 00:16:20;;;;;;;7.00;3.50;;;;;;;;;;5131360;27;20047;-74
2022/04/11 00:18:45;;;;;;;6.20;3.35;;;;;;;;;;5123634;27;20102;-75
2022/04/11 00:21:10;;;;;;;7.40;3.53;;;;;;;;;;5121171;27;20015;-73
2022/04/11 00:23:36;;;;;;;10.90;4.70;;;;;;;;;;5119572;27;20031;-73
2022/04/11 00:26:01;;;;;;;6.10;3.35;;;;;;;;;;5120529;27;20038;-73
2022/04/11 00:28:26;;;;;;;6.25;3.47;;;;;;;;;;5124601;27;20415;-73
2022/04/11 00:30:51;;;;;;;8.60;3.78;;;;;;;;;;5121379;27;20032;-73
2022/04/11 00:33:17;;;;;;;8.65;3.20;;;;;;;;;;5116381;27;20015;-73
2022/04/11 00:35:42;;;;;;;5.90;3.17;;;;;;;;;;5121320;27;20026;-73
2022/04/11 00:38:07;;;;;;;6.03;3.03;;;;;;;;;;5115521;27;20051;-73
2022/04/11 00:40:32;;;;;;;6.15;2.78;;;;;;;;;;5110487;28;20019;-73
2022/04/11 00:42:58;;;;;;;9.98;2.80;;;;;;;;;;5111630;28;20057;-74
2022/04/11 00:45:23;;;;;;;5.18;2.90;;;;;;;;;;5112525;28;20016;-74
2022/04/11 00:47:48;;;;;;;6.97;2.88;;;;;;;;;;5111934;28;20107;-73
2022/04/11 00:50:14;;;;;;;4.38;2.60;;;;;;;;;;5110669;28;20019;-73
2022/04/11 00:52:53;;;;;;;6.07;2.83;;;;;;;;;;5112337;28;20498;-73
2022/04/11 00:55:21;;;;;;;6.68;3.28;;;;;;;;;;5112679;28;20475;-73
2022/04/11 00:57:46;;;;;;;5.60;2.60;;;;;;;;;;5119112;27;20475;-73
2022/04/11 01:00:13;;;;;;;4.00;2.33;;;;;;;;;;5120596;27;20019;-73
2022/04/11 01:02:38;;;;;;;6.35;2.95;;;;;;;;;;5110450;28;20027;-73
2022/04/11 01:05:08;;;;;;;4.57;2.50;;;;;;;;;;5110414;28;20107;-73
2022/04/11 01:07:34;;;;;;;4.18;2.63;;;;;;;;;;5111038;28;20483;-73
2022/04/11 01:09:59;;;;;;;5.28;2.95;;;;;;;;;;5109688;28;20024;-73
2022/04/11 01:12:25;;;;;;;6.78;3.00;;;;;;;;;;5110676;28;20035;-73
2022/04/11 01:14:51;;;;;;;5.88;3.20;;;;;;;;;;5109028;28;20056;-73
2022/04/11 01:17:16;;;;;;;7.00;3.70;;;;;;;;;;5110711;28;20114;-73
2022/04/11 01:19:41;;;;;;;8.30;2.88;;;;;;;;;;5110749;28;20027;-73
2022/04/11 01:22:06;;;;;;;5.90;3.10;;;;;;;;;;5110229;28;20019;-74
2022/04/11 01:24:32;;;;;;;7.30;4.00;;;;;;;;;;5110930;28;20510;-73
2022/04/11 01:26:57;;;;;;;4.75;2.80;;;;;;;;;;5110636;28;20022;-73
2022/04/11 01:29:23;;;;;;;5.38;2.88;;;;;;;;;;5110596;28;20024;-73
2022/04/11 01:31:48;;;;;;;8.30;3.50;;;;;;;;;;5112760;28;20015;-73
2022/04/11 01:34:13;;;;;;;5.82;2.75;;;;;;;;;;5120101;28;20003;-73
2022/04/11 01:36:39;;;;;;;6.50;3.60;;;;;;;;;;5118058;28;20012;-73
2022/04/11 01:39:04;;;;;;;4.80;2.40;;;;;;;;;;5112671;28;20391;-73
2022/04/11 01:41:29;;;;;;;5.97;3.20;;;;;;;;;;5113763;28;20015;-73
2022/04/11 01:43:56;;;;;;;8.02;2.78;;;;;;;;;;5113427;28;20123;-73
2022/04/11 01:46:21;;;;;;;5.80;3.28;;;;;;;;;;5114683;28;20027;-73
2022/04/11 01:48:46;;;;;;;4.78;2.92;;;;;;;;;;5114716;28;20076;-73
2022/04/11 01:51:13;;;;;;;5.03;2.95;;;;;;;;;;5113788;27;20016;-73
2022/04/11 01:53:39;;;;;;;5.13;3.00;;;;;;;;;;5114039;27;20063;-73
2022/04/11 01:56:04;;;;;;;5.95;2.65;;;;;;;;;;5114170;28;20047;-73
2022/04/11 01:58:30;;;;;;;5.95;3.20;;;;;;;;;;5113574;28;20110;-73
2022/04/11 02:00:58;;;;;;;6.00;2.83;;;;;;;;;;5114031;28;20022;-73
2022/04/11 02:03:24;;;;;;;5.88;2.50;;;;;;;;;;5114000;28;20495;-73
2022/04/11 02:05:49;;;;;;;7.32;3.00;;;;;;;;;;5113605;28;20023;-73
2022/04/11 02:08:14;;;;;;;5.45;3.33;;;;;;;;;;5117743;27;20073;-73
2022/04/11 02:10:39;;;;;;;3.88;2.60;;;;;;;;;;5119844;27;20027;-74
2022/04/11 02:13:05;;;;;;;6.18;3.00;;;;;;;;;;5127113;27;20027;-73
2022/04/11 02:15:31;;;;;;;4.20;2.53;;;;;;;;;;5133301;27;20039;-73
2022/04/11 02:17:56;;;;;;;6.82;2.88;;;;;;;;;;5133502;27;20038;-73
2022/04/11 02:20:21;;;;;;;3.95;2.75;;;;;;;;;;5133390;27;20027;-73
2022/04/11 02:22:47;;;;;;;5.97;3.00;;;;;;;;;;5134596;27;20130;-73
2022/04/11 02:25:12;;;;;;;7.70;3.30;;;;;;;;;;5133836;27;20429;-73
2022/04/11 02:27:37;;;;;;;7.10;3.70;;;;;;;;;;5134753;27;20069;-73
2022/04/11 02:30:03;;;;;;;6.25;2.95;;;;;;;;;;5136045;27;20043;-75
2022/04/11 02:32:28;;;;;;;6.95;2.65;;;;;;;;;;5134832;27;20011;-73
2022/04/11 02:34:54;;;;;;;4.85;2.47;;;;;;;;;;5133316;27;20030;-73
2022/04/11 02:37:19;;;;;;;4.82;2.70;;;;;;;;;;5133993;27;20015;-73
2022/04/11 02:39:44;;;;;;;5.47;2.80;;;;;;;;;;5132940;27;20375;-74
2022/04/11 02:42:09;;;;;;;5.88;2.60;;;;;;;;;;5126935;27;20777;-73
2022/04/11 02:44:35;;;;;;;5.30;2.67;;;;;;;;;;5122212;27;20122;-73
2022/04/11 02:47:00;;;;;;;5.05;2.70;;;;;;;;;;5123910;27;20052;-73
2022/04/11 02:49:25;;;;;;;4.80;2.90;;;;;;;;;;5116140;27;20019;-73
2022/04/11 02:51:50;;;;;;;6.80;2.85;;;;;;;;;;5112390;28;20039;-73
2022/04/11 02:54:16;;;;;;;6.05;2.92;;;;;;;;;;5113322;28;20020;-73
2022/04/11 02:56:41;;;;;;;4.75;2.55;;;;;;;;;;5112900;28;20483;-73
2022/04/11 02:59:06;;;;;;;4.82;2.92;;;;;;;;;;5112950;28;20049;-73
2022/04/11 03:01:31;;;;;;;4.32;2.92;;;;;;;;;;5113396;28;20076;-72
2022/04/11 03:03:57;;;;;;;6.93;2.97;;;;;;;;;;5112566;28;20027;-73
2022/04/11 03:06:22;;;;;;;5.45;2.83;;;;;;;;;;5112473;28;20080;-73
2022/04/11 03:08:47;;;;;;;5.32;3.10;;;;;;;;;;5112702;28;20039;-73
2022/04/11 03:11:12;;;;;;;5.93;2.83;;;;;;;;;;5112216;28;20026;-73
2022/04/11 03:13:38;;;;;;;6.15;3.30;;;;;;;;;;5112087;28;20027;-73
2022/04/11 03:16:03;;;;;;;4.32;2.78;;;;;;;;;;5112011;28;20039;-73
2022/04/11 03:18:28;;;;;;;5.43;2.70;;;;;;;;;;5112073;28;20024;-73
2022/04/11 03:20:53;;;;;;;4.28;2.40;;;;;;;;;;5119695;27;20030;-73
2022/04/11 03:23:18;;;;;;;4.25;2.78;;;;;;;;;;5121813;27;20064;-73
2022/04/11 03:25:44;;;;;;;5.57;2.80;;;;;;;;;;5119895;27;20527;-73
2022/04/11 03:28:09;;;;;;;5.95;3.00;;;;;;;;;;5121056;27;20378;-73
2022/04/11 03:30:34;;;;;;;5.95;3.25;;;;;;;;;;5121185;27;20020;-73
2022/04/11 03:32:59;;;;;;;5.15;2.50;;;;;;;;;;5119485;27;20022;-73
2022/04/11 03:35:25;;;;;;;5.93;3.13;;;;;;;;;;5123393;27;20031;-73
2022/04/11 03:37:50;;;;;;;5.47;3.63;;;;;;;;;;5119214;27;20391;-73
2022/04/11 03:40:15;;;;;;;4.82;2.80;;;;;;;;;;5111339;28;20091;-74
2022/04/11 03:42:41;;;;;;;6.38;3.20;;;;;;;;;;5111485;28;20046;-73
2022/04/11 03:45:10;;;;;;;5.18;3.55;;;;;;;;;;5111587;28;20047;-73
2022/04/11 03:47:35;;;;;;;4.18;2.92;;;;;;;;;;5121786;27;20034;-73
2022/04/11 03:50:01;;;;;;;7.13;3.47;;;;;;;;;;5119003;27;20023;-73
2022/04/11 03:52:26;;;;;;;5.78;2.60;;;;;;;;;;5129604;27;20471;-72
2022/04/11 03:54:51;;;;;;;5.78;3.30;;;;;;;;;;5131596;27;20494;-73
2022/04/11 03:57:16;;;;;;;6.55;3.10;;;;;;;;;;5122295;27;20072;-74
2022/04/11 03:59:42;;;;;;;6.90;3.72;;;;;;;;;;5122420;27;20106;-73
2022/04/11 04:02:07;;;;;;;6.10;3.13;;;;;;;;;;5110439;28;20015;-73
2022/04/11 04:04:32;;;;;;;5.68;3.20;;;;;;;;;;5119795;27;20034;-73
2022/04/11 04:06:57;;;;;;;7.70;3.65;;;;;;;;;;5120281;27;20515;-73
2022/04/11 04:09:23;;;;;;;6.80;4.07;;;;;;;;;;5113477;27;20019;-73
2022/04/11 04:11:48;;;;;;;4.57;3.27;;;;;;;;;;5111459;28;20053;-73
2022/04/11 04:14:13;;;;;;;6.00;3.45;;;;;;;;;;5110007;28;20271;-73
2022/04/11 04:16:38;;;;;;;6.13;3.28;;;;;;;;;;5115076;27;20479;-73
2022/04/11 04:19:03;;;;;;;6.35;3.22;;;;;;;;;;5119283;27;20131;-72
2022/04/11 04:21:29;;;;;;;7.03;3.35;;;;;;;;;;5118305;27;20031;-72
2022/04/11 04:23:54;;;;;;;5.78;3.28;;;;;;;;;;5111144;28;20032;-75
2022/04/11 04:26:19;;;;;;;7.88;3.75;;;;;;;;;;5118345;27;20145;-72
2022/04/11 04:28:45;;;;;;;5.47;3.40;;;;;;;;;;5118207;27;20015;-72
2022/04/11 04:31:10;;;;;;;5.90;3.67;;;;;;;;;;5124664;27;20197;-74
2022/04/11 04:33:35;;;;;;;5.65;3.67;;;;;;;;;;5119890;27;20113;-72
2022/04/11 04:36:01;;;;;;;6.22;3.40;;;;;;;;;;5119367;27;20476;-73
2022/04/11 04:38:26;;;;;;;5.82;3.80;;;;;;;;;;5131834;27;20027;-72
2022/04/11 04:40:51;;;;;;;7.28;3.63;;;;;;;;;;5133651;27;20019;-74
2022/04/11 04:43:16;;;;;;;8.30;3.80;;;;;;;;;;5133483;27;20176;-75
2022/04/11 04:45:42;;;;;;;9.00;3.92;;;;;;;;;;5123605;28;20015;-73
2022/04/11 04:48:07;;;;;;;8.15;4.38;;;;;;;;;;5130297;28;20023;-73
2022/04/11 04:50:32;;;;;;;12.98;3.75;;;;;;;;;;5120963;28;20433;-72
2022/04/11 04:52:58;;;;;;;7.40;3.72;;;;;;;;;;5119019;28;20095;-73
2022/04/11 04:55:24;;;;;;;7.45;3.95;;;;;;;;;;5121233;27;20102;-72
2022/04/11 04:57:49;;;;;;;8.18;4.30;;;;;;;;;;5119108;28;20438;-72
2022/04/11 05:00:14;;;;;;;6.13;3.80;;;;;;;;;;5118298;28;20058;-72
2022/04/11 05:02:40;;;;;;;7.00;4.57;;;;;;;;;;5120192;28;20016;-72
2022/04/11 05:05:09;;;;;;;7.10;4.05;;;;;;;;;;5118487;27;20059;-71
2022/04/11 05:07:34;;;;;;;7.18;4.68;;;;;;;;;;5121583;27;20020;-72
2022/04/11 05:10:00;;;;;;;6.70;4.30;;;;;;;;;;5118617;28;20049;-73
2022/04/11 05:12:26;;;;;;;7.93;4.32;;;;;;;;;;5120454;27;20637;-73
2022/04/11 05:14:51;;;;;;;8.30;4.40;;;;;;;;;;5124676;27;20126;-72
2022/04/11 05:17:16;;;;;;;8.88;4.20;;;;;;;;;;5123554;27;20023;-72
2022/04/11 05:19:41;;;;;;;5.65;3.63;;;;;;;;;;5125610;27;20034;-74
2022/04/11 05:22:07;;;;;;;9.70;4.15;;;;;;;;;;5128686;27;20035;-73
2022/04/11 05:24:32;;;;;;;8.50;4.68;;;;;;;;;;5126531;27;20360;-73
2022/04/11 05:26:57;;;;;;;6.70;3.92;;;;;;;;;;5135107;27;20093;-73
2022/04/11 05:29:23;;;;;;;11.07;4.95;;;;;;;;;;5122669;27;20555;-73
2022/04/11 05:31:48;;;;;;;10.52;4.95;;;;;;;;;;5114689;28;20070;-73
2022/04/11 05:34:13;;;;;;;8.60;4.07;;;;;;;;;;5114215;27;20023;-74
2022/04/11 05:36:39;;;;;;;15.95;5.82;;;;;;;;;;5114294;28;20024;-71
2022/04/11 05:39:04;;;;;;;10.00;4.53;;;;;;;;;;5114174;28;20072;-74
2022/04/11 05:41:29;;;;;;;8.05;4.55;;;;;;;;;;5122645;27;20023;-76
2022/04/11 05:43:54;;;;;;;8.30;4.00;;;;;;;;;;5123259;27;20038;-76
2022/04/11 05:46:20;;;;;;;9.85;4.20;;;;;;;;;;5137769;27;20019;-75
2022/04/11 05:48:45;;;;;;;10.68;4.70;;;;;;;;;;5129435;27;20031;-77
2022/04/11 05:51:10;;;;;;;7.10;4.05;;;;;;;;;;5135609;27;20069;-76
2022/04/11 05:53:36;;;;;;;7.03;4.70;;;;;;;;;;5137041;27;20027;-76
2022/04/11 05:56:01;;;;;;;10.65;4.95;;;;;;;;;;5137137;27;20015;-79
2022/04/11 05:58:26;;;;;;;8.18;4.30;;;;;;;;;;5146155;27;20344;-76
2022/04/11 06:00:51;;;;;;;8.63;4.10;;;;;;;;;;5137384;27;20007;-75
2022/04/11 06:03:17;;;;;;;11.98;5.30;;;;;;;;;;5134635;27;20042;-75
2022/04/11 06:05:42;;;;;;;9.57;4.10;;;;;;;;;;5134629;27;20018;-76
2022/04/11 06:08:07;;;;;;;14.27;4.40;;;;;;;;;;5133170;27;20531;-78
2022/04/11 06:10:33;;;;;;;10.90;4.57;;;;;;;;;;5134454;27;20019;-77
2022/04/11 06:12:58;;;;;;;9.05;5.13;;;;;;;;;;5134391;27;20023;-77
2022/04/11 06:15:23;;;;;;;9.27;4.88;;;;;;;;;;5133106;27;20058;-76
2022/04/11 06:17:48;;;;;;;10.60;5.07;;;;;;;;;;5127284;27;20016;-85
2022/04/11 06:20:14;;;;;;;5.60;4.18;;;;;;;;;;5130305;27;20019;-84
2022/04/11 06:22:42;;;;;;;9.70;4.70;;;;;;;;;;5134387;27;20027;-81
2022/04/11 06:25:08;;;;;;;8.98;4.97;;;;;;;;;;5117019;28;20043;-77
2022/04/11 06:27:34;;;;;;;8.40;4.68;;;;;;;;;;5117088;28;20027;-84
2022/04/11 06:29:59;;;;;;;6.93;4.28;;;;;;;;;;5119504;28;20016;-85
2022/04/11 06:32:26;;;;;;;8.15;4.80;;;;;;;;;;5117467;28;20053;-81
2022/04/11 06:34:51;;;;;;;13.65;5.18;;;;;;;;;;5116490;28;20057;-79
2022/04/11 06:37:16;;;;;;;7.68;4.07;;;;;;;;;;5119220;28;20023;-81
2022/04/11 06:39:41;;;;;;;9.38;5.03;;;;;;;;;;5119162;28;20027;-82
2022/04/11 06:42:07;;;;;;;8.85;5.30;;;;;;;;;;5117742;28;20024;-80
2022/04/11 06:44:33;;;;;;;7.30;4.60;;;;;;;;;;5118413;28;20027;-83
2022/04/11 06:46:58;;;;;;;7.55;4.57;;;;;;;;;;5119572;27;20434;-84
2022/04/11 06:49:23;;;;;;;8.35;5.57;;;;;;;;;;5129251;27;20019;-81
2022/04/11 06:51:48;;;;;;;11.73;5.18;;;;;;;;;;5132040;27;20020;-83
2022/04/11 06:54:13;;;;;;;7.00;4.32;;;;;;;;;;5138972;27;20022;-84
2022/04/11 06:56:39;;;;;;;9.63;4.72;;;;;;;;;;5127077;27;20056;-83
2022/04/11 06:59:04;;;;;;;7.57;4.30;;;;;;;;;;5128297;27;20011;-82
2022/04/11 07:01:29;;;;;;;9.55;5.28;;;;;;;;;;5124385;27;20767;-75
2022/04/11 07:03:54;;;;;;;6.53;3.90;;;;;;;;;;5121156;27;20499;-76
2022/04/11 07:06:20;;;;;;;7.95;4.10;;;;;;;;;;5120084;27;21009;-75
2022/04/11 07:08:45;;;;;;;9.65;4.13;;;;;;;;;;5122792;27;20026;-75
2022/04/11 07:11:10;;;;;;;11.63;4.70;;;;;;;;;;5121709;27;20010;-76
2022/04/11 07:13:35;;;;;;;6.88;4.20;;;;;;;;;;5120402;27;20074;-75
2022/04/11 07:16:01;;;;;;;9.10;4.85;;;;;;;;;;5123685;27;20035;-78
2022/04/11 07:18:27;;;;;;;8.05;5.10;;;;;;;;;;5121918;27;20019;-75
2022/04/11 07:20:58;;;;;;;10.70;5.70;;;;;;;;;;5119853;27;20384;-74
2022/04/11 07:23:23;;;;;;;8.10;4.63;;;;;;;;;;5121617;27;20023;-75
2022/04/11 07:25:49;;;;;;;6.55;4.47;;;;;;;;;;5122656;27;20515;-75
2022/04/11 07:28:14;;;;;;;10.57;5.40;;;;;;;;;;5122383;27;20023;-76
2022/04/11 07:30:40;;;;;;;7.40;4.30;;;;;;;;;;5120883;27;20019;-75
2022/04/11 07:33:06;;;;;;;9.50;4.43;;;;;;;;;;5120212;27;20042;-75
2022/04/11 07:35:31;;;;;;;7.68;3.88;;;;;;;;;;5119874;27;20019;-75
2022/04/11 07:38:00;;;;;;;6.75;4.28;;;;;;;;;;5122089;27;20015;-74
2022/04/11 07:40:26;;;;;;;9.13;4.20;;;;;;;;;;5121599;27;20375;-76
2022/04/11 07:42:52;;;;;;;9.38;5.03;;;;;;;;;;5119766;27;20023;-74
2022/04/11 07:45:17;;;;;;;6.47;4.30;;;;;;;;;;5120179;27;20527;-76
2022/04/11 07:47:43;;;;;;;5.75;3.45;;;;;;;;;;5123171;27;20376;-76
2022/04/11 07:50:08;;;;;;;6.40;4.18;;;;;;;;;;5121779;27;20011;-75
2022/04/11 07:52:36;;;;;;;6.60;3.55;;;;;;;;;;5120154;27;20091;-75
2022/04/11 07:55:01;;;;;;;7.20;4.35;;;;;;;;;;5119742;27;20023;-75
2022/04/11 07:57:26;;;;;;;6.83;4.27;;;;;;;;;;5125783;27;20014;-75
2022/04/11 07:59:51;;;;;;;6.93;4.27;;;;;;;;;;5119866;27;20255;-76
2022/04/11 08:02:22;;;;;;;6.97;4.20;;;;;;;;;;5120148;27;20320;-76
2022/04/11 08:04:48;;;;;;;7.80;4.32;;;;;;;;;;5122877;27;20300;-77
2022/04/11 08:07:13;;;;;;;8.10;4.30;;;;;;;;;;5119645;27;20020;-77
2022/04/11 08:09:38;;;;;;;7.70;4.63;;;;;;;;;;5121793;27;20408;-76
2022/04/11 08:12:04;;;;;;;6.47;4.23;;;;;;;;;;5123396;27;20259;-75
2022/04/11 08:14:30;;;;;;;6.15;4.43;;;;;;;;;;5129610;27;20263;-75
2022/04/11 08:16:59;;;;;;;7.78;4.43;;;;;;;;;;5126481;27;20034;-76
2022/04/11 08:19:27;;;;;;;6.78;4.85;;;;;;;;;;5120213;27;20031;-74
2022/04/11 08:21:53;;;;;;;7.60;4.65;;;;;;;;;;5120992;27;20019;-76
2022/04/11 08:24:18;;;;;;;9.23;4.72;;;;;;;;;;5124576;27;20111;-75
2022/04/11 08:26:44;;;;;;;9.80;4.50;;;;;;;;;;5122198;27;20024;-75
2022/04/11 08:29:09;;;;;;;8.23;4.55;;;;;;;;;;5115245;27;20263;-76
2022/04/11 08:31:34;;;;;;;5.40;3.97;;;;;;;;;;5121706;27;20356;-74
2022/04/11 08:34:00;;;;;;;7.33;4.20;;;;;;;;;;5119278;27;20106;-75
2022/04/11 08:36:25;;;;;;;7.00;3.93;;;;;;;;;;5111257;27;20357;-75
2022/04/11 08:38:52;;;;;;;6.32;4.22;;;;;;;;;;5102358;28;20268;-76
2022/04/11 08:41:18;;;;;;;7.38;4.38;;;;;;;;;;5119039;27;20015;-75
2022/04/11 08:43:43;;;;;;;7.43;4.40;;;;;;;;;;5120767;27;20421;-75
2022/04/11 08:46:08;;;;;;;6.20;3.97;;;;;;;;;;5122206;27;20098;-75
2022/04/11 08:48:33;;;;;;;6.43;4.43;;;;;;;;;;5120445;27;20378;-75
2022/04/11 08:50:59;;;;;;;5.47;3.57;;;;;;;;;;5121076;28;20106;-75
2022/04/11 08:53:24;;;;;;;5.00;3.60;;;;;;;;;;5118850;28;20239;-75
2022/04/11 08:55:50;;;;;;;5.40;3.53;;;;;;;;;;5120867;28;20468;-75
2022/04/11 08:58:16;;;;;;;7.30;3.85;;;;;;;;;;5119206;27;20034;-74
2022/04/11 09:00:41;;;;;;;10.02;4.25;;;;;;;;;;5122508;27;20015;-75
2022/04/11 09:03:07;;;;;;;5.15;2.85;;;;;;;;;;5123883;28;20472;-74
2022/04/11 09:05:34;;;;;;;5.15;2.67;;;;;;;;;;5127630;27;20018;-74
2022/04/11 09:07:59;;;;;;;4.95;2.83;;;;;;;;;;5126233;28;20016;-75
2022/04/11 09:10:32;;;;;;;3.67;2.60;;;;;;;;;;5122665;27;20008;-75
2022/04/11 09:12:57;;;;;;;4.65;2.72;;;;;;;;;;5123664;27;20030;-74
2022/04/11 09:15:23;;;;;;;4.28;2.50;;;;;;;;;;5131136;27;20055;-75
2022/04/11 09:17:49;;;;;;;3.50;2.10;;;;;;;;;;5131876;27;20015;-75
2022/04/11 09:20:15;;;;;;;3.80;2.08;;;;;;;;;;5134206;28;20024;-76
2022/04/11 09:22:41;;;;;;;4.88;2.00;;;;;;;;;;5131771;28;20474;-76
2022/04/11 09:25:06;;;;;;;3.97;2.40;;;;;;;;;;5133463;27;20042;-75
2022/04/11 09:27:31;;;;;;;3.83;2.30;;;;;;;;;;5132945;28;20102;-75
2022/04/11 09:29:56;;;;;;;3.17;1.97;;;;;;;;;;5132151;28;20023;-75
2022/04/11 09:32:21;;;;;;;3.13;2.40;;;;;;;;;;5131386;28;20048;-75
2022/04/11 09:34:52;;;;;;;3.67;2.30;;;;;;;;;;5125347;28;20375;-76
2022/04/11 09:37:17;;;;;;;3.95;2.38;;;;;;;;;;5110769;28;20452;-74
2022/04/11 09:39:44;;;;;;;4.60;2.47;;;;;;;;;;5111062;28;20103;-74
2022/04/11 09:42:09;;;;;;;3.60;2.15;;;;;;;;;;5111053;28;20270;-73
2022/04/11 09:44:35;;;;;;;3.42;2.30;;;;;;;;;;5111041;28;20028;-74
2022/04/11 09:47:04;;;;;;;4.55;2.97;;;;;;;;;;5110990;28;20380;-74
2022/04/11 09:49:30;;;;;;;3.47;2.15;;;;;;;;;;5120320;28;20630;-75
2022/04/11 09:52:12;;;;;;;4.38;2.25;;;;;;;;;;5122132;27;20472;-73
2022/04/11 09:54:44;;;;;;;3.15;1.90;;;;;;;;;;5110999;28;20032;-74
2022/04/11 09:57:11;;;;;;;5.32;2.50;;;;;;;;;;5112977;28;20517;-74
2022/04/11 09:59:37;;;;;;;3.53;2.22;;;;;;;;;;5132878;27;20126;-75
2022/04/11 10:02:03;;;;;;;4.28;2.35;;;;;;;;;;5129070;27;21025;-75
2022/04/11 10:04:28;;;;;;;4.80;2.50;;;;;;;;;;5123887;27;20046;-75
2022/04/11 10:06:54;;;;;;;4.13;2.53;;;;;;;;;;5134668;27;20067;-75
2022/04/11 10:09:22;;;;;;;3.92;2.50;;;;;;;;;;5134936;27;20023;-74
2022/04/11 10:11:47;;;;;;;4.00;2.35;;;;;;;;;;5134686;27;20110;-74
2022/04/11 10:14:23;;;;;;;4.93;2.88;;;;;;;;;;5119502;27;20050;-75
2022/04/11 10:16:48;;;;;;;5.45;2.28;;;;;;;;;;5113789;28;20051;-75
2022/04/11 10:19:14;;;;;;;3.50;2.60;;;;;;;;;;5114003;28;20020;-74
2022/04/11 10:21:41;;;;;;;4.75;2.83;;;;;;;;;;5113809;28;20102;-75
2022/04/11 10:24:07;;;;;;;4.80;2.30;;;;;;;;;;5114133;28;20161;-75
2022/04/11 10:26:42;;;;;;;3.95;2.30;;;;;;;;;;5113858;28;20019;-75
2022/04/11 10:29:28;;;;;;;3.13;2.13;;;;;;;;;;5130081;27;20027;-74
2022/04/11 10:32:04;;;;;;;3.65;2.40;;;;;;;;;;5133746;27;20047;-75
2022/04/11 10:34:55;;;;;;;3.20;1.88;;;;;;;;;;5130601;27;20345;-75
2022/04/11 10:37:25;;;;;;;3.47;2.10;;;;;;;;;;5125115;27;20391;-75
2022/04/11 10:39:50;;;;;;;3.35;1.95;;;;;;;;;;5117594;27;20035;-74
2022/04/11 10:42:17;;;;;;;3.17;1.90;;;;;;;;;;5113227;28;20019;-74
2022/04/11 10:44:43;;;;;;;3.65;2.20;;;;;;;;;;5113497;27;20052;-75
2022/04/11 10:47:08;;;;;;;3.60;2.35;;;;;;;;;;5133582;27;20049;-76
2022/04/11 10:49:49;;;;;;;3.00;2.17;;;;;;;;;;5133909;27;20492;-74
2022/04/11 10:52:26;;;;;;;3.20;1.90;;;;;;;;;;5127056;27;20076;-74
2022/04/11 10:54:53;;;;;;;2.50;1.92;;;;;;;;;;5124798;27;20023;-75
2022/04/11 10:57:32;;;;;;;1.98;1.70;;;;;;;;;;5118096;27;20072;-75
2022/04/11 11:00:03;;;;;;;3.03;1.85;;;;;;;;;;5115515;27;20024;-75
2022/04/11 11:05:31;;;;;;;2.45;1.75;;;;;;;;;;5116415;28;20020;-77
2022/04/11 11:08:11;;;;;;;3.05;2.03;;;;;;;;;;5119135;28;20510;-76
2022/04/11 11:10:40;;;;;;;2.72;1.70;;;;;;;;;;5119408;27;20050;-75
2022/04/11 11:13:28;;;;;;;2.92;2.00;;;;;;;;;;5119123;27;20019;-75
2022/04/11 11:16:09;;;;;;;2.97;1.95;;;;;;;;;;5121871;27;20051;-74
2022/04/11 11:18:46;;;;;;;3.67;2.17;;;;;;;;;;5114800;27;20015;-75
2022/04/11 11:21:12;;;;;;;3.15;1.95;;;;;;;;;;5133246;27;20015;-75
2022/04/11 11:23:37;;;;;;;3.42;1.75;;;;;;;;;;5133099;27;20056;-75
2022/04/11 11:26:13;;;;;;;2.78;2.00;;;;;;;;;;5115252;28;20047;-78
2022/04/11 11:28:45;;;;;;;3.38;2.40;;;;;;;;;;5114651;28;20020;-73
2022/04/11 11:31:10;;;;;;;2.92;1.90;;;;;;;;;;5120288;27;20030;-74
2022/04/11 11:33:36;;;;;;;2.33;1.75;;;;;;;;;;5126443;27;20019;-74
2022/04/11 11:36:02;;;;;;;3.10;1.80;;;;;;;;;;5120083;27;20070;-73
2022/04/11 11:38:29;;;;;;;2.67;1.80;;;;;;;;;;5120267;27;20043;-75
2022/04/11 11:40:55;;;;;;;4.15;2.25;;;;;;;;;;5121614;27;20020;-75
2022/04/11 11:43:21;;;;;;;2.97;2.08;;;;;;;;;;5112138;28;20437;-74
2022/04/11 11:45:47;;;;;;;2.35;1.70;;;;;;;;;;5115842;27;20054;-73
2022/04/11 11:48:38;;;;;;;2.97;1.70;;;;;;;;;;5116470;27;20071;-75
2022/04/11 11:51:03;;;;;;;2.92;1.88;;;;;;;;;;5113749;27;20035;-79
2022/04/11 11:53:43;;;;;;;2.93;1.80;;;;;;;;;;5126057;27;20014;-86
2022/04/11 11:56:09;;;;;;;6.38;2.10;;;;;;;;;;5126157;27;20747;-85
2022/04/11 11:58:35;;;;;;;5.20;1.98;;;;;;;;;;5123205;27;20019;-81
2022/04/11 12:01:00;;;;;;;2.90;1.73;;;;;;;;;;5124696;27;20023;-78
2022/04/11 12:06:12;;;;;;;2.90;1.70;;;;;;;;;;5140058;27;20019;-87
2022/04/11 12:08:37;;;;;;;2.72;1.85;;;;;;;;;;5126806;27;20023;-81
2022/04/11 12:11:03;;;;;;;2.58;1.70;;;;;;;;;;5116888;27;20012;-86
2022/04/11 12:13:32;;;;;;;2.70;1.80;;;;;;;;;;5132355;27;20031;-83
2022/04/11 12:16:15;;;;;;;4.13;2.30;;;;;;;;;;5127655;27;20074;-82
2022/04/11 12:18:49;;;;;;;3.65;1.67;;;;;;;;;;5134050;27;20031;-85
2022/04/11 12:21:15;;;;;;;2.38;1.80;;;;;;;;;;5124685;27;20125;-77
2022/04/11 12:23:47;;;;;;;2.28;1.70;;;;;;;;;;5118814;27;20563;-75
2022/04/11 12:26:12;;;;;;;2.33;1.70;;;;;;;;;;5127646;27;20019;-74
2022/04/11 12:28:38;;;;;;;2.03;1.60;;;;;;;;;;5114728;27;20405;-76
2022/04/11 12:31:03;;;;;;;3.83;1.98;;;;;;;;;;5118597;27;20027;-76
2022/04/11 12:33:28;;;;;;;3.38;2.05;;;;;;;;;;5121726;27;20069;-76
2022/04/11 12:36:12;;;;;;;3.27;1.80;;;;;;;;;;5124542;27;20561;-77
2022/04/11 12:38:38;;;;;;;3.22;1.80;;;;;;;;;;5114549;27;20263;-77
2022/04/11 12:41:03;;;;;;;3.13;1.92;;;;;;;;;;5125427;27;20093;-75
2022/04/11 12:43:29;;;;;;;4.65;1.70;;;;;;;;;;5119588;27;20479;-75
2022/04/11 12:46:04;;;;;;;2.55;1.70;;;;;;;;;;5132729;27;20036;-76
2022/04/11 12:48:29;;;;;;;2.50;1.80;;;;;;;;;;5113526;27;20028;-75
2022/04/11 12:51:09;;;;;;;3.53;1.60;;;;;;;;;;5123210;28;20083;-76
2022/04/11 12:53:34;;;;;;;3.00;1.60;;;;;;;;;;5120540;27;20263;-76
2022/04/11 12:56:07;;;;;;;1.70;1.50;;;;;;;;;;5125986;28;20019;-75
2022/04/11 12:58:37;;;;;;;2.80;1.88;;;;;;;;;;5112374;27;20024;-75
2022/04/11 13:01:02;;;;;;;2.25;1.70;;;;;;;;;;5116925;28;20030;-76
2022/04/11 13:03:28;;;;;;;3.30;1.70;;;;;;;;;;5120969;28;20040;-74
2022/04/11 13:05:54;;;;;;;1.98;1.60;;;;;;;;;;5124004;28;20247;-75
2022/04/11 13:08:19;;;;;;;2.22;1.52;;;;;;;;;;5121902;27;20021;-74
2022/04/11 13:10:44;;;;;;;4.32;2.33;;;;;;;;;;5118402;28;20383;-75
2022/04/11 13:13:09;;;;;;;2.58;1.63;;;;;;;;;;5115868;28;20027;-75
2022/04/11 13:18:23;;;;;;;1.97;1.50;;;;;;;;;;5114316;28;20105;-74
2022/04/11 13:18:29;;;;;;;2.03;1.42;;;;;;;;;;5117759;28;20252;-75
2022/04/11 13:20:54;;;;;;;2.30;1.80;;;;;;;;;;5120796;28;20081;-74
2022/04/11 13:23:19;;;;;;;2.17;1.43;;;;;;;;;;5117914;28;20031;-81
2022/04/11 13:25:45;;;;;;;2.35;1.60;;;;;;;;;;5118223;28;20258;-75
2022/04/11 13:28:10;;;;;;;3.00;1.55;;;;;;;;;;5123868;28;20012;-74
2022/04/11 13:30:35;;;;;;;4.47;1.55;;;;;;;;;;5129654;28;20023;-75
2022/04/11 13:33:00;;;;;;;5.07;1.93;;;;;;;;;;5117684;28;20020;-75
2022/04/11 13:35:26;;;;;;;1.88;1.50;;;;;;;;;;5124600;27;20260;-75
2022/04/11 13:37:51;;;;;;;3.28;1.90;;;;;;;;;;5127825;27;20026;-74
2022/04/11 13:40:16;;;;;;;2.85;1.85;;;;;;;;;;5119061;27;20064;-75
2022/04/11 13:42:42;;;;;;;3.50;2.05;;;;;;;;;;5131064;27;20421;-74
2022/04/11 13:45:07;;;;;;;2.78;1.88;;;;;;;;;;5114976;27;20034;-76
2022/04/11 13:47:32;;;;;;;4.13;1.52;;;;;;;;;;5124441;27;20020;-74
2022/04/11 13:49:58;;;;;;;4.85;2.30;;;;;;;;;;5117920;27;20026;-76
2022/04/11 13:52:23;;;;;;;2.28;1.63;;;;;;;;;;5116472;27;20163;-74
2022/04/11 13:54:48;;;;;;;1.98;1.60;;;;;;;;;;5116636;27;20027;-75
2022/04/11 13:57:14;;;;;;;2.72;1.70;;;;;;;;;;5119396;27;20030;-74
2022/04/11 13:59:40;;;;;;;2.42;1.70;;;;;;;;;;5111249;28;20082;-74
2022/04/11 14:02:08;;;;;;;2.58;1.70;;;;;;;;;;5111692;27;20087;-75
2022/04/11 14:04:33;;;;;;;3.85;1.90;;;;;;;;;;5112875;27;20050;-74
2022/04/11 14:06:58;;;;;;;3.15;1.80;;;;;;;;;;5111194;27;20412;-75
2022/04/11 14:09:24;;;;;;;4.10;2.03;;;;;;;;;;5125797;27;20023;-74
2022/04/11 14:11:49;;;;;;;2.83;1.77;;;;;;;;;;5113235;27;20264;-73
2022/04/11 14:14:14;;;;;;;2.00;1.45;;;;;;;;;;5110819;28;20301;-74
2022/04/11 14:16:39;;;;;;;3.22;1.80;;;;;;;;;;5110931;27;20051;-74
2022/04/11 14:19:05;;;;;;;2.47;1.80;;;;;;;;;;5111794;27;20027;-74
2022/04/11 14:21:30;;;;;;;2.65;1.75;;;;;;;;;;5117128;27;20383;-78
2022/04/11 14:23:56;;;;;;;2.95;1.85;;;;;;;;;;5125738;27;20035;-74
2022/04/11 14:26:21;;;;;;;3.03;1.70;;;;;;;;;;5113851;27;20034;-74
2022/04/11 14:28:46;;;;;;;2.00;1.58;;;;;;;;;;5110362;28;20480;-74
2022/04/11 14:31:12;;;;;;;1.63;1.37;;;;;;;;;;5110792;28;20115;-74
2022/04/11 14:33:38;;;;;;;2.42;1.67;;;;;;;;;;5110520;27;20294;-80
2022/04/11 14:36:04;;;;;;;3.05;1.80;;;;;;;;;;5118127;27;20577;-74
2022/04/11 14:38:29;;;;;;;2.22;1.70;;;;;;;;;;5111503;27;20483;-73
2022/04/11 14:40:54;;;;;;;2.85;1.65;;;;;;;;;;5125707;27;20035;-73
2022/04/11 14:43:20;;;;;;;3.50;1.70;;;;;;;;;;5119157;27;20059;-73
2022/04/11 14:45:45;;;;;;;2.20;1.52;;;;;;;;;;5109925;28;20438;-73